createdAt,value
2019-04-28T00:01:08.054Z,80.84
2019-04-28T00:03:10.826Z,80.52
2019-04-28T00:05:13.664Z,80.35
2019-04-28T00:07:15.660Z,79.64
2019-04-28T00:09:18.234Z,79.75
2019-04-28T00:11:21.634Z,78.31
2019-04-28T00:13:24.849Z,77.91
2019-04-28T00:15:30.654Z,77.95
2019-04-28T00:17:32.867Z,77.94
2019-04-28T00:19:35.544Z,77.29
2019-04-28T00:22:06.433Z,76.92
2019-04-28T00:24:28.066Z,76.80
2019-04-28T00:26:37.157Z,77.88
2019-04-28T00:28:41.603Z,78.17
2019-04-28T00:30:44.061Z,78.07
2019-04-28T00:32:47.232Z,78.33
2019-04-28T00:34:51.009Z,77.66
2019-04-28T00:37:12.873Z,78.22
2019-04-28T00:39:14.908Z,78.54
2019-04-28T00:41:16.862Z,78.39
2019-04-28T00:43:19.108Z,79.12
2019-04-28T00:45:21.539Z,79.01
2019-04-28T00:47:25.711Z,80.67
2019-04-28T00:49:46.365Z,78.83
2019-04-28T00:51:51.824Z,79.50
2019-04-28T00:53:53.827Z,79.49
2019-04-28T00:55:55.884Z,79.38
2019-04-28T00:57:58.550Z,80.31
2019-04-28T01:00:02.382Z,81.24
2019-04-28T01:02:13.613Z,81.02
2019-04-28T01:04:18.674Z,82.35
2019-04-28T01:06:22.189Z,83.28
2019-04-28T01:08:24.612Z,83.62
2019-04-28T01:10:27.629Z,83.65
2019-04-28T01:12:31.062Z,83.56
2019-04-28T01:14:34.458Z,84.26
2019-04-28T01:16:49.806Z,82.94
2019-04-28T01:18:56.971Z,80.81
2019-04-28T01:20:59.747Z,82.05
2019-04-28T01:23:01.824Z,81.05
2019-04-28T01:25:04.268Z,82.14
2019-04-28T01:27:08.231Z,82.48
2019-04-28T01:29:10.252Z,81.97
2019-04-28T01:31:21.231Z,82.59
2019-04-28T01:33:34.673Z,83.56
2019-04-28T01:35:36.673Z,83.71
2019-04-28T01:37:40.573Z,83.96
2019-04-28T01:39:42.764Z,84.06
2019-04-28T01:41:44.764Z,83.47
2019-04-28T01:43:46.776Z,82.70
2019-04-28T01:45:50.282Z,83.20
2019-04-28T01:47:52.423Z,83.46
2019-04-28T01:49:54.431Z,83.58
2019-04-28T01:52:00.864Z,83.48
2019-04-28T01:54:02.941Z,83.95
2019-04-28T01:56:06.351Z,83.45
2019-04-28T01:58:09.560Z,83.95
2019-04-28T02:00:23.038Z,83.20
2019-04-28T02:02:19.931Z,82.66
2019-04-28T02:04:22.251Z,82.68
2019-04-28T02:06:24.386Z,82.64
2019-04-28T02:08:26.584Z,82.84
2019-04-28T02:10:30.149Z,81.78
2019-04-28T02:12:33.276Z,81.69
2019-04-28T02:14:35.260Z,81.75
2019-04-28T02:16:37.302Z,82.11
2019-04-28T02:18:40.404Z,81.57
2019-04-28T02:20:44.546Z,81.27
2019-04-28T02:22:53.126Z,81.23
2019-04-28T02:24:55.194Z,81.39
2019-04-28T02:26:57.597Z,80.50
2019-04-28T02:29:00.301Z,79.19
2019-04-28T02:31:02.654Z,79.61
2019-04-28T02:33:04.651Z,80.01
2019-04-28T02:35:06.782Z,80.28
2019-04-28T02:37:11.282Z,80.32
2019-04-28T02:39:12.832Z,80.68
2019-04-28T02:41:15.201Z,80.85
2019-04-28T02:43:17.221Z,81.22
2019-04-28T02:45:21.724Z,81.28
2019-04-28T02:47:27.140Z,81.45
2019-04-28T02:49:51.433Z,80.83
2019-04-28T02:52:20.666Z,80.85
2019-04-28T02:54:24.572Z,81.27
2019-04-28T02:56:26.608Z,81.80
2019-04-28T02:58:31.303Z,80.76
2019-04-28T03:00:32.704Z,80.78
2019-04-28T03:02:34.683Z,80.81
2019-04-28T03:04:36.786Z,80.41
2019-04-28T03:06:40.692Z,81.51
2019-04-28T03:08:42.886Z,81.79
2019-04-28T03:10:45.284Z,81.88
2019-04-28T03:12:46.896Z,81.65
2019-04-28T03:14:50.582Z,81.07
2019-04-28T03:16:53.068Z,81.89
2019-04-28T03:18:55.173Z,82.42
2019-04-28T03:20:57.162Z,81.65
2019-04-28T03:23:00.942Z,81.75
2019-04-28T03:25:05.426Z,82.21
2019-04-28T03:27:24.163Z,81.93
2019-04-28T03:29:40.380Z,81.45
2019-04-28T03:32:10.198Z,81.93
2019-04-28T03:33:55.852Z,81.64
2019-04-28T03:35:55.562Z,82.24
2019-04-28T03:37:57.612Z,82.31
2019-04-28T03:40:00.607Z,82.68
2019-04-28T03:42:03.411Z,82.68
2019-04-28T03:44:05.430Z,82.80
2019-04-28T03:46:13.223Z,83.01
2019-04-28T03:48:15.189Z,83.19
2019-04-28T03:50:17.196Z,82.59
2019-04-28T03:52:21.255Z,82.05
2019-04-28T03:54:23.511Z,82.25
2019-04-28T03:56:25.288Z,82.52
2019-04-28T03:58:27.397Z,82.64
2019-04-28T04:00:31.159Z,82.23
2019-04-28T04:02:34.015Z,82.19
2019-04-28T04:04:35.645Z,82.46
2019-04-28T04:06:37.775Z,82.95
2019-04-28T04:08:40.810Z,82.71
2019-04-28T04:11:02.357Z,82.76
2019-04-28T04:13:11.745Z,82.05
2019-04-28T04:15:43.611Z,81.77
2019-04-28T04:18:04.477Z,81.90
2019-04-28T04:20:06.685Z,81.86
2019-04-28T04:22:10.154Z,81.83
2019-04-28T04:24:14.466Z,81.87
2019-04-28T04:26:16.798Z,81.97
2019-04-28T04:28:20.635Z,82.10
2019-04-28T04:30:23.161Z,82.25
2019-04-28T04:32:27.208Z,82.70
2019-04-28T04:34:30.225Z,82.17
2019-04-28T04:36:32.552Z,82.08
2019-04-28T04:38:34.558Z,81.66
2019-04-28T04:40:36.527Z,81.36
2019-04-28T04:42:40.289Z,81.86
2019-04-28T04:44:42.424Z,81.90
2019-04-28T04:46:45.375Z,81.85
2019-04-28T04:48:47.428Z,81.43
2019-04-28T04:50:51.041Z,81.44
2019-04-28T04:52:53.268Z,81.11
2019-04-28T04:54:55.526Z,81.52
2019-04-28T04:56:59.908Z,81.42
2019-04-28T04:59:02.884Z,82.37
2019-04-28T05:01:36.726Z,82.17
2019-04-28T05:03:40.583Z,81.91
2019-04-28T05:05:42.787Z,80.33
2019-04-28T05:07:45.105Z,79.98
2019-04-28T05:09:49.559Z,80.38
2019-04-28T05:11:52.933Z,80.84
2019-04-28T05:13:54.896Z,80.72
2019-04-28T05:15:56.862Z,80.57
2019-04-28T05:18:00.213Z,80.58
2019-04-28T05:20:02.931Z,80.48
2019-04-28T05:22:06.766Z,80.11
2019-04-28T05:24:27.129Z,80.93
2019-04-28T05:26:30.076Z,79.81
2019-04-28T05:28:36.527Z,79.59
2019-04-28T05:30:39.817Z,80.05
2019-04-28T05:32:44.922Z,79.38
2019-04-28T05:34:46.478Z,80.09
2019-04-28T05:36:47.877Z,80.11
2019-04-28T05:38:50.237Z,80.56
2019-04-28T05:40:51.828Z,79.72
2019-04-28T05:43:00.812Z,80.04
2019-04-28T05:45:03.752Z,79.53
2019-04-28T05:47:06.862Z,80.53
2019-04-28T05:49:20.643Z,80.55
2019-04-28T05:51:23.043Z,79.67
2019-04-28T05:53:50.624Z,79.31
2019-04-28T05:56:05.031Z,79.82
2019-04-28T05:58:14.802Z,79.47
2019-04-28T06:00:39.688Z,79.73
2019-04-28T06:02:55.891Z,79.51
2019-04-28T06:04:49.469Z,79.25
2019-04-28T06:06:53.701Z,79.77
2019-04-28T06:09:15.662Z,79.25
2019-04-28T06:11:34.417Z,78.97
2019-04-28T06:13:36.433Z,79.19
2019-04-28T06:15:39.700Z,78.09
2019-04-28T06:17:41.899Z,77.44
2019-04-28T06:19:44.189Z,77.53
2019-04-28T06:21:46.203Z,77.86
2019-04-28T06:23:48.534Z,77.19
2019-04-28T06:25:50.514Z,77.27
2019-04-28T06:27:52.660Z,77.20
2019-04-28T06:29:54.693Z,77.60
2019-04-28T06:31:56.694Z,76.00
2019-04-28T06:33:58.897Z,76.90
2019-04-28T06:36:00.922Z,77.74
2019-04-28T06:38:02.994Z,78.35
2019-04-28T06:40:05.387Z,79.20
2019-04-28T06:42:06.997Z,80.01
2019-04-28T06:44:08.925Z,80.80
2019-04-28T06:46:10.904Z,80.36
2019-04-28T06:48:12.908Z,80.40
2019-04-28T06:50:15.069Z,80.48
2019-04-28T06:52:17.047Z,80.06
2019-04-28T06:54:19.138Z,81.17
2019-04-28T06:56:21.501Z,79.04
2019-04-28T06:58:23.502Z,80.01
2019-04-28T07:00:25.667Z,78.78
2019-04-28T07:02:27.791Z,80.91
2019-04-28T07:04:29.808Z,78.22
2019-04-28T07:06:31.803Z,78.04
2019-04-28T07:08:33.824Z,77.79
2019-04-28T07:10:35.825Z,76.78
2019-04-28T07:12:38.216Z,76.59
2019-04-28T07:14:40.253Z,75.14
2019-04-28T07:16:42.355Z,76.94
2019-04-28T07:18:44.322Z,76.26
2019-04-28T07:20:52.934Z,74.31
2019-04-28T07:22:54.948Z,73.33
2019-04-28T07:24:57.939Z,72.37
2019-04-28T07:26:59.995Z,71.50
2019-04-28T07:29:02.002Z,71.25
2019-04-28T07:31:04.209Z,72.47
2019-04-28T07:33:06.307Z,74.18
2019-04-28T07:35:08.288Z,73.65
2019-04-28T07:37:10.314Z,74.23
2019-04-28T07:39:12.696Z,75.00
2019-04-28T07:41:14.322Z,73.51
2019-04-28T07:43:16.389Z,75.28
2019-04-28T07:45:18.631Z,74.13
2019-04-28T07:47:20.642Z,73.41
2019-04-28T07:49:22.687Z,72.97
2019-04-28T07:51:27.882Z,72.32
2019-04-28T07:53:38.622Z,72.63
2019-04-28T07:55:40.616Z,74.29
2019-04-28T07:57:42.725Z,74.47
2019-04-28T07:59:44.818Z,72.03
2019-04-28T08:01:47.358Z,72.85
2019-04-28T08:03:50.017Z,73.59
2019-04-28T08:05:52.500Z,72.72
2019-04-28T08:07:54.490Z,73.50
2019-04-28T08:09:56.478Z,73.54
2019-04-28T08:11:58.693Z,74.06
2019-04-28T08:14:01.024Z,73.81
2019-04-28T08:16:03.097Z,73.58
2019-04-28T08:18:06.414Z,73.59
2019-04-28T08:20:08.587Z,72.10
2019-04-28T08:22:10.687Z,71.43
2019-04-28T08:24:12.672Z,72.31
2019-04-28T08:26:14.723Z,71.84
2019-04-28T08:28:16.834Z,72.55
2019-04-28T08:30:18.861Z,71.78
2019-04-28T08:32:33.388Z,72.32
2019-04-28T08:34:36.433Z,72.77
2019-04-28T08:36:38.415Z,70.81
2019-04-28T08:38:40.516Z,70.72
2019-04-28T08:40:42.655Z,71.06
2019-04-28T08:42:44.759Z,72.00
2019-04-28T08:44:46.771Z,70.64
2019-04-28T08:46:48.754Z,69.64
2019-04-28T08:48:50.758Z,67.98
2019-04-28T08:50:52.900Z,69.08
2019-04-28T08:52:54.887Z,66.37
2019-04-28T08:54:56.946Z,64.41
2019-04-28T08:56:59.112Z,64.92
2019-04-28T08:59:01.479Z,63.88
2019-04-28T09:01:03.574Z,64.11
2019-04-28T09:03:05.614Z,65.20
2019-04-28T09:05:08.073Z,65.68
2019-04-28T09:07:09.649Z,65.57
2019-04-28T09:09:14.383Z,65.52
2019-04-28T09:11:16.477Z,63.83
2019-04-28T09:13:18.537Z,64.05
2019-04-28T09:15:22.829Z,62.29
2019-04-28T09:17:24.833Z,60.10
2019-04-28T09:19:26.890Z,60.65
2019-04-28T09:21:28.877Z,58.98
2019-04-28T09:23:30.857Z,59.26
2019-04-28T09:25:32.870Z,57.46
2019-04-28T09:27:34.875Z,58.29
2019-04-28T09:29:37.020Z,59.22
2019-04-28T09:31:39.403Z,58.48
2019-04-28T09:33:42.916Z,58.85
2019-04-28T09:35:45.593Z,59.67
2019-04-28T09:37:47.640Z,59.49
2019-04-28T09:39:58.861Z,59.09
2019-04-28T09:42:19.003Z,57.58
2019-04-28T09:44:21.175Z,60.18
2019-04-28T09:46:29.811Z,59.99
2019-04-28T09:48:35.363Z,60.58
2019-04-28T09:50:37.394Z,60.29
2019-04-28T09:52:39.399Z,58.72
2019-04-28T09:54:41.395Z,56.11
2019-04-28T09:56:55.724Z,57.05
2019-04-28T09:58:47.293Z,57.83
2019-04-28T10:00:49.923Z,57.33
2019-04-28T10:02:51.930Z,57.25
2019-04-28T10:04:54.072Z,57.07
2019-04-28T10:06:56.520Z,59.80
2019-04-28T10:08:58.370Z,59.66
2019-04-28T10:11:00.487Z,60.10
2019-04-28T10:13:02.465Z,59.47
2019-04-28T10:15:06.548Z,60.60
2019-04-28T10:17:08.777Z,61.40
2019-04-28T10:19:13.541Z,60.85
2019-04-28T10:21:15.552Z,61.98
2019-04-28T10:23:17.564Z,63.25
2019-04-28T10:25:21.224Z,63.38
2019-04-28T10:27:23.416Z,62.16
2019-04-28T10:29:25.432Z,62.77
2019-04-28T10:31:27.609Z,63.70
2019-04-28T10:33:29.780Z,64.18
2019-04-28T10:35:31.752Z,64.54
2019-04-28T10:37:33.771Z,64.88
2019-04-28T10:39:42.625Z,65.66
2019-04-28T10:41:44.720Z,64.72
2019-04-28T10:43:46.768Z,65.70
2019-04-28T10:45:50.705Z,65.06
2019-04-28T10:47:52.678Z,63.51
2019-04-28T10:49:55.319Z,65.70
2019-04-28T10:51:59.543Z,64.44
2019-04-28T10:54:01.519Z,63.63
2019-04-28T10:56:04.888Z,62.59
2019-04-28T10:58:07.509Z,63.43
2019-04-28T11:00:10.576Z,64.32
2019-04-28T11:02:12.864Z,62.72
2019-04-28T11:04:32.946Z,61.92
2019-04-28T11:06:34.915Z,61.11
2019-04-28T11:08:47.966Z,62.07
2019-04-28T11:10:49.994Z,60.20
2019-04-28T11:12:51.995Z,59.57
2019-04-28T11:14:54.022Z,59.58
2019-04-28T11:16:56.086Z,58.87
2019-04-28T11:18:58.085Z,60.19
2019-04-28T11:21:00.289Z,59.41
2019-04-28T11:23:02.444Z,61.17
2019-04-28T11:25:06.308Z,60.35
2019-04-28T11:27:08.792Z,60.73
2019-04-28T11:29:10.844Z,60.46
2019-04-28T11:31:12.938Z,59.89
2019-04-28T11:33:53.446Z,60.89
2019-04-28T11:35:55.440Z,60.45
2019-04-28T11:37:57.593Z,61.01
2019-04-28T11:39:59.609Z,61.86
2019-04-28T11:42:01.812Z,60.52
2019-04-28T11:44:05.020Z,60.23
2019-04-28T11:46:08.939Z,59.62
2019-04-28T11:48:10.941Z,60.74
2019-04-28T11:50:13.616Z,61.74
2019-04-28T11:52:15.765Z,60.40
2019-04-28T11:54:17.756Z,60.41
2019-04-28T11:56:19.760Z,60.75
2019-04-28T11:58:21.986Z,58.95
2019-04-28T12:00:34.681Z,59.02
2019-04-28T12:02:37.953Z,59.22
2019-04-28T12:04:40.016Z,57.97
2019-04-28T12:06:42.299Z,59.33
2019-04-28T12:08:44.443Z,60.19
2019-04-28T12:10:56.545Z,59.43
2019-04-28T12:13:23.017Z,58.10
2019-04-28T12:15:47.297Z,58.64
2019-04-28T12:18:09.839Z,58.98
2019-04-28T12:20:16.553Z,59.93
2019-04-28T12:22:18.698Z,61.19
2019-04-28T12:24:21.112Z,61.15
2019-04-28T12:26:22.826Z,62.36
2019-04-28T12:28:24.924Z,60.78
2019-04-28T12:30:26.945Z,60.96
2019-04-28T12:32:29.045Z,61.60
2019-04-28T12:34:31.141Z,61.85
2019-04-28T12:36:33.193Z,62.18
2019-04-28T12:38:35.383Z,61.83
2019-04-28T12:40:37.403Z,62.69
2019-04-28T12:42:39.435Z,62.11
2019-04-28T12:44:44.475Z,61.90
2019-04-28T12:46:46.491Z,62.91
2019-04-28T12:48:52.224Z,62.19
2019-04-28T12:50:54.537Z,63.63
2019-04-28T12:52:56.663Z,64.44
2019-04-28T12:54:59.314Z,63.23
2019-04-28T12:57:01.375Z,62.26
2019-04-28T12:59:11.345Z,61.63
2019-04-28T13:01:30.530Z,62.68
2019-04-28T13:03:55.371Z,61.86
2019-04-28T13:06:02.622Z,62.27
2019-04-28T13:08:02.650Z,61.98
2019-04-28T13:10:06.245Z,60.34
2019-04-28T13:12:07.796Z,60.76
2019-04-28T13:14:10.275Z,61.74
2019-04-28T13:16:12.295Z,64.38
2019-04-28T13:18:14.529Z,62.80
2019-04-28T13:20:16.611Z,61.82
2019-04-28T13:22:19.313Z,62.16
2019-04-28T13:24:21.353Z,60.92
2019-04-28T13:26:24.455Z,60.07
2019-04-28T13:28:26.566Z,60.81
2019-04-28T13:30:28.629Z,59.57
2019-04-28T13:32:30.961Z,57.93
2019-04-28T13:34:37.272Z,58.83
2019-04-28T13:36:39.333Z,60.26
2019-04-28T13:38:41.543Z,60.99
2019-04-28T13:40:43.597Z,61.50
2019-04-28T13:42:45.629Z,63.33
2019-04-28T13:44:55.859Z,61.38
2019-04-28T13:46:57.939Z,63.79
2019-04-28T13:49:00.811Z,61.96
2019-04-28T13:51:03.074Z,60.62
2019-04-28T13:53:06.014Z,59.62
2019-04-28T13:55:27.166Z,61.52
2019-04-28T13:57:29.996Z,61.21
2019-04-28T13:59:32.027Z,62.28
2019-04-28T14:02:02.495Z,61.25
2019-04-28T14:04:24.283Z,61.42
2019-04-28T14:06:28.646Z,62.06
2019-04-28T14:08:31.075Z,62.04
2019-04-28T14:10:33.144Z,61.89
2019-04-28T14:12:35.403Z,62.40
2019-04-28T14:14:38.801Z,63.23
2019-04-28T14:16:40.900Z,64.31
2019-04-28T14:18:42.971Z,64.41
2019-04-28T14:20:45.058Z,64.10
2019-04-28T14:22:47.424Z,62.58
2019-04-28T14:24:49.540Z,62.83
2019-04-28T14:26:51.617Z,63.10
2019-04-28T14:28:53.627Z,62.64
2019-04-28T14:30:55.724Z,62.64
2019-04-28T14:32:57.865Z,62.04
2019-04-28T14:35:00.344Z,63.33
2019-04-28T14:37:02.603Z,63.11
2019-04-28T14:39:06.882Z,62.93
2019-04-28T14:41:10.954Z,62.50
2019-04-28T14:43:13.232Z,62.49
2019-04-28T14:45:15.834Z,63.90
2019-04-28T14:47:18.256Z,63.77
2019-04-28T14:49:19.999Z,62.75
2019-04-28T14:51:22.102Z,62.93
2019-04-28T14:53:24.296Z,63.50
2019-04-28T14:55:26.350Z,63.23
2019-04-28T14:57:28.380Z,63.24
2019-04-28T14:59:30.436Z,63.65
2019-04-28T15:02:07.330Z,63.52
2019-04-28T15:04:17.000Z,62.43
2019-04-28T15:06:38.879Z,63.82
2019-04-28T15:09:06.089Z,62.79
2019-04-28T15:11:38.531Z,64.42
2019-04-28T15:13:40.540Z,62.82
2019-04-28T15:15:42.571Z,63.38
2019-04-28T15:17:44.738Z,63.88
2019-04-28T15:19:47.819Z,64.14
2019-04-28T15:21:49.837Z,64.61
2019-04-28T15:23:52.920Z,64.08
2019-04-28T15:25:54.989Z,62.54
2019-04-28T15:27:57.157Z,64.38
2019-04-28T15:29:59.140Z,63.82
2019-04-28T15:32:01.454Z,63.58
2019-04-28T15:34:03.569Z,64.51
2019-04-28T15:36:05.880Z,64.02
2019-04-28T15:38:07.909Z,64.12
2019-04-28T15:40:09.942Z,64.22
2019-04-28T15:42:11.924Z,64.45
2019-04-28T15:44:13.944Z,63.00
2019-04-28T15:46:15.943Z,64.13
2019-04-28T15:48:18.269Z,64.49
2019-04-28T15:50:20.345Z,64.86
2019-04-28T15:52:22.486Z,65.39
2019-04-28T15:54:24.886Z,65.04
2019-04-28T15:56:42.913Z,65.58
2019-04-28T15:58:44.954Z,66.28
2019-04-28T16:00:47.297Z,66.33
2019-04-28T16:02:49.320Z,66.72
2019-04-28T16:04:51.496Z,66.16
2019-04-28T16:06:53.546Z,66.67
2019-04-28T16:08:55.613Z,66.36
2019-04-28T16:10:57.781Z,66.24
2019-04-28T16:12:59.819Z,66.58
2019-04-28T16:15:01.864Z,65.67
2019-04-28T16:17:04.002Z,67.09
2019-04-28T16:19:06.043Z,67.21
2019-04-28T16:21:08.281Z,67.29
2019-04-28T16:23:10.290Z,67.72
2019-04-28T16:25:12.457Z,67.14
2019-04-28T16:27:14.522Z,67.73
2019-04-28T16:29:16.650Z,67.09
2019-04-28T16:31:18.695Z,66.95
2019-04-28T16:33:20.759Z,66.68
2019-04-28T16:35:22.811Z,66.32
2019-04-28T16:37:37.893Z,67.17
2019-04-28T16:39:28.946Z,67.27
2019-04-28T16:41:32.097Z,67.26
2019-04-28T16:43:35.831Z,67.54
2019-04-28T16:45:38.564Z,66.96
2019-04-28T16:47:40.998Z,67.89
2019-04-28T16:49:42.827Z,67.26
2019-04-28T16:51:46.059Z,68.19
2019-04-28T16:53:48.159Z,68.43
2019-04-28T16:56:15.506Z,66.91
2019-04-28T16:58:33.736Z,66.36
2019-04-28T17:01:04.082Z,67.91
2019-04-28T17:03:06.840Z,66.37
2019-04-28T17:05:08.909Z,66.83
2019-04-28T17:07:11.351Z,67.43
2019-04-28T17:09:15.585Z,67.86
2019-04-28T17:11:17.971Z,68.35
2019-04-28T17:13:20.029Z,68.10
2019-04-28T17:15:22.162Z,68.71
2019-04-28T17:17:24.387Z,68.58
2019-04-28T17:19:26.473Z,68.36
2019-04-28T17:21:28.957Z,68.46
2019-04-28T17:23:31.029Z,68.88
2019-04-28T17:25:33.215Z,68.36
2019-04-28T17:27:35.355Z,68.36
2019-04-28T17:29:38.116Z,68.39
2019-04-28T17:31:42.469Z,69.21
2019-04-28T17:33:44.748Z,68.82
2019-04-28T17:35:47.189Z,68.47
2019-04-28T17:37:49.172Z,68.53
2019-04-28T17:39:51.355Z,69.00
2019-04-28T17:41:54.520Z,68.69
2019-04-28T17:43:56.766Z,69.37
2019-04-28T17:45:59.270Z,69.64
2019-04-28T17:48:08.395Z,69.94
2019-04-28T17:50:12.686Z,69.85
2019-04-28T17:52:14.723Z,69.01
2019-04-28T17:54:16.904Z,70.27
2019-04-28T17:56:19.004Z,69.84
2019-04-28T17:58:21.106Z,69.84
2019-04-28T18:00:38.840Z,68.50
2019-04-28T18:03:09.580Z,69.77
2019-04-28T18:05:26.938Z,69.76
2019-04-28T18:07:31.650Z,69.83
2019-04-28T18:09:33.686Z,69.91
2019-04-28T18:11:35.833Z,68.92
2019-04-28T18:13:37.942Z,69.41
2019-04-28T18:16:06.343Z,69.46
2019-04-28T18:18:28.145Z,69.13
2019-04-28T18:20:30.219Z,69.29
2019-04-28T18:22:32.482Z,68.34
2019-04-28T18:24:34.868Z,68.54
2019-04-28T18:26:36.933Z,69.17
2019-04-28T18:28:38.994Z,68.67
2019-04-28T18:30:47.687Z,68.96
2019-04-28T18:33:08.069Z,68.24
2019-04-28T18:35:32.372Z,67.39
2019-04-28T18:38:06.577Z,67.22
2019-04-28T18:40:26.707Z,68.65
2019-04-28T18:42:36.048Z,68.60
2019-04-28T18:44:38.261Z,69.67
2019-04-28T18:46:40.349Z,68.34
2019-04-28T18:48:42.652Z,69.18
2019-04-28T18:50:45.027Z,70.23
2019-04-28T18:52:47.060Z,70.75
2019-04-28T18:54:49.380Z,70.74
2019-04-28T18:56:51.475Z,70.50
2019-04-28T18:58:53.633Z,71.07
2019-04-28T19:01:08.901Z,71.95
2019-04-28T19:03:14.126Z,71.41
2019-04-28T19:05:16.232Z,71.73
2019-04-28T19:07:27.691Z,72.37
2019-04-28T19:09:43.092Z,72.68
2019-04-28T19:11:48.763Z,73.77
2019-04-28T19:14:01.073Z,73.34
2019-04-28T19:16:17.543Z,74.02
2019-04-28T19:18:24.470Z,73.47
2019-04-28T19:20:26.610Z,74.08
2019-04-28T19:22:28.707Z,73.79
2019-04-28T19:24:30.811Z,74.07
2019-04-28T19:26:33.061Z,75.02
2019-04-28T19:28:35.087Z,75.05
2019-04-28T19:30:37.358Z,74.45
2019-04-28T19:32:39.511Z,75.26
2019-04-28T19:34:41.667Z,74.72
2019-04-28T19:36:43.717Z,75.13
2019-04-28T19:38:46.010Z,75.00
2019-04-28T19:40:48.055Z,74.44
2019-04-28T19:42:51.759Z,74.72
2019-04-28T19:44:53.778Z,74.99
2019-04-28T19:46:55.775Z,75.36
2019-04-28T19:48:58.029Z,75.68
2019-04-28T19:51:00.410Z,75.60
2019-04-28T19:53:02.492Z,76.20
2019-04-28T19:55:09.885Z,75.93
2019-04-28T19:57:27.703Z,76.71
2019-04-28T19:59:52.341Z,76.57
2019-04-28T20:01:54.373Z,76.97
2019-04-28T20:03:56.373Z,77.80
2019-04-28T20:05:58.612Z,77.90
2019-04-28T20:08:00.854Z,78.02
2019-04-28T20:10:03.809Z,78.36
2019-04-28T20:12:05.933Z,77.70
2019-04-28T20:14:09.179Z,78.14
2019-04-28T20:16:11.132Z,78.67
2019-04-28T20:18:13.460Z,78.77
2019-04-28T20:20:15.597Z,78.96
2019-04-28T20:22:17.904Z,78.72
2019-04-28T20:24:20.072Z,79.25
2019-04-28T20:26:22.472Z,78.84
2019-04-28T20:28:24.459Z,79.14
2019-04-28T20:30:26.470Z,79.28
2019-04-28T20:32:31.024Z,79.72
2019-04-28T20:34:33.199Z,79.24
2019-04-28T20:37:01.080Z,79.54
2019-04-28T20:39:08.985Z,80.23
2019-04-28T20:41:20.096Z,80.25
2019-04-28T20:43:22.099Z,80.25
2019-04-28T20:45:24.203Z,80.18
2019-04-28T20:47:26.545Z,80.27
2019-04-28T20:49:28.584Z,79.87
2019-04-28T20:51:30.599Z,80.26
2019-04-28T20:53:32.768Z,80.49
2019-04-28T20:55:34.857Z,80.80
2019-04-28T20:57:36.895Z,81.03
2019-04-28T20:59:38.897Z,80.28
2019-04-28T21:01:40.922Z,79.73
2019-04-28T21:03:44.199Z,79.46
2019-04-28T21:05:46.201Z,78.82
2019-04-28T21:07:48.365Z,77.28
2019-04-28T21:09:50.457Z,76.91
2019-04-28T21:11:53.798Z,76.88
2019-04-28T21:13:55.868Z,76.52
2019-04-28T21:15:58.020Z,76.74
2019-04-28T21:17:59.979Z,76.93
2019-04-28T21:20:02.002Z,77.81
2019-04-28T21:22:05.305Z,76.84
2019-04-28T21:24:07.309Z,76.69
2019-04-28T21:26:09.566Z,77.05
2019-04-28T21:28:11.410Z,77.41
2019-04-28T21:30:13.646Z,77.78
2019-04-28T21:32:16.727Z,76.77
2019-04-28T21:34:19.884Z,78.01
2019-04-28T21:36:22.093Z,76.80
2019-04-28T21:38:24.328Z,77.12
2019-04-28T21:40:26.847Z,77.21
2019-04-28T21:42:48.069Z,77.69
2019-04-28T21:45:13.132Z,78.21
2019-04-28T21:47:22.580Z,77.88
2019-04-28T21:49:26.717Z,77.30
2019-04-28T21:51:29.960Z,77.69
2019-04-28T21:53:31.991Z,77.77
2019-04-28T21:55:34.007Z,78.25
2019-04-28T21:57:36.122Z,78.09
2019-04-28T21:59:38.250Z,78.78
2019-04-28T22:01:40.493Z,78.72
2019-04-28T22:03:43.583Z,78.92
2019-04-28T22:05:45.623Z,78.51
2019-04-28T22:07:47.762Z,78.48
2019-04-28T22:09:49.987Z,78.51
2019-04-28T22:11:52.089Z,79.29
2019-04-28T22:13:54.099Z,79.31
2019-04-28T22:15:56.255Z,79.09
2019-04-28T22:17:58.397Z,79.75
2019-04-28T22:20:00.466Z,79.76
2019-04-28T22:22:02.514Z,79.65
2019-04-28T22:24:24.416Z,79.60
2019-04-28T22:26:42.380Z,79.79
2019-04-28T22:28:44.372Z,79.79
2019-04-28T22:30:46.389Z,80.03
2019-04-28T22:32:48.522Z,79.95
2019-04-28T22:34:50.567Z,79.92
2019-04-28T22:36:52.610Z,79.83
2019-04-28T22:38:54.732Z,79.35
2019-04-28T22:40:56.828Z,79.62
2019-04-28T22:42:58.917Z,79.65
2019-04-28T22:45:01.006Z,80.12
2019-04-28T22:47:03.287Z,79.67
2019-04-28T22:49:05.949Z,79.23
2019-04-28T22:51:08.294Z,79.61
2019-04-28T22:53:10.748Z,78.58
2019-04-28T22:55:20.021Z,79.53
2019-04-28T22:57:36.447Z,79.44
2019-04-28T22:59:40.815Z,79.79
2019-04-28T23:01:45.033Z,80.28
2019-04-28T23:04:08.383Z,80.34
2019-04-28T23:06:10.724Z,79.88
2019-04-28T23:08:12.467Z,80.28
2019-04-28T23:10:14.582Z,80.37
2019-04-28T23:12:16.688Z,80.68
2019-04-28T23:14:19.131Z,80.14
2019-04-28T23:16:22.385Z,80.00
2019-04-28T23:18:24.385Z,80.44
2019-04-28T23:20:28.750Z,80.81
2019-04-28T23:22:46.785Z,80.96
2019-04-28T23:24:43.111Z,81.53
2019-04-28T23:26:45.152Z,81.77
2019-04-28T23:28:48.318Z,81.57
2019-04-28T23:30:52.221Z,82.07
2019-04-28T23:32:54.262Z,82.21
2019-04-28T23:34:56.394Z,81.89
2019-04-28T23:36:58.468Z,82.07
2019-04-28T23:39:47.113Z,82.51
2019-04-28T23:42:07.473Z,82.68
2019-04-28T23:44:09.740Z,82.78
2019-04-28T23:46:12.863Z,82.97
2019-04-28T23:48:14.891Z,82.60
2019-04-28T23:50:20.534Z,82.68
2019-04-28T23:52:29.451Z,82.61
2019-04-28T23:54:33.164Z,82.22
2019-04-28T23:56:35.084Z,82.43
2019-04-28T23:58:37.074Z,82.58
